sensor_id;sensor_type;location;lat;lon;timestamp;P1;durP1;ratioP1;P2;durP2;ratioP2
12367;SDS011;6248;49.812;6.620;2024-01-15T00:01:14;20.80;;;10.03;;
12367;SDS011;6248;49.812;6.620;2024-01-15T00:03:41;25.57;;;10.60;;
12367;SDS011;6248;49.812;6.620;2024-01-15T00:06:09;24.07;;;11.20;;
12367;SDS011;6248;49.812;6.620;2024-01-15T00:08:36;19.97;;;9.07;;
12367;SDS011;6248;49.812;6.620;2024-01-15T00:11:04;24.27;;;10.70;;
12367;SDS011;6248;49.812;6.620;2024-01-15T00:13:31;18.70;;;9.57;;
12367;SDS011;6248;49.812;6.620;2024-01-15T00:15:58;25.23;;;11.00;;
12367;SDS011;6248;49.812;6.620;2024-01-15T00:18:25;24.43;;;10.13;;
12367;SDS011;6248;49.812;6.620;2024-01-15T00:20:53;26.03;;;10.73;;
12367;SDS011;6248;49.812;6.620;2024-01-15T00:23:20;24.70;;;10.33;;
12367;SDS011;6248;49.812;6.620;2024-01-15T00:25:47;25.93;;;10.67;;
12367;SDS011;6248;49.812;6.620;2024-01-15T00:28:15;21.23;;;10.37;;
12367;SDS011;6248;49.812;6.620;2024-01-15T00:30:42;21.47;;;10.33;;
12367;SDS011;6248;49.812;6.620;2024-01-15T00:33:09;28.80;;;11.47;;
12367;SDS011;6248;49.812;6.620;2024-01-15T00:35:37;25.17;;;11.77;;
12367;SDS011;6248;49.812;6.620;2024-01-15T00:38:04;32.70;;;12.33;;
12367;SDS011;6248;49.812;6.620;2024-01-15T00:40:31;33.30;;;11.47;;
12367;SDS011;6248;49.812;6.620;2024-01-15T00:42:58;26.87;;;11.80;;
12367;SDS011;6248;49.812;6.620;2024-01-15T00:45:28;29.00;;;12.17;;
12367;SDS011;6248;49.812;6.620;2024-01-15T00:47:56;30.97;;;12.77;;
12367;SDS011;6248;49.812;6.620;2024-01-15T00:50:24;22.17;;;9.60;;
12367;SDS011;6248;49.812;6.620;2024-01-15T00:52:51;27.00;;;11.80;;
12367;SDS011;6248;49.812;6.620;2024-01-15T00:55:18;27.23;;;11.50;;
12367;SDS011;6248;49.812;6.620;2024-01-15T00:57:45;27.70;;;11.03;;
12367;SDS011;6248;49.812;6.620;2024-01-15T01:00:13;28.70;;;11.97;;
12367;SDS011;6248;49.812;6.620;2024-01-15T01:02:41;29.90;;;11.47;;
12367;SDS011;6248;49.812;6.620;2024-01-15T01:05:08;27.53;;;11.80;;
12367;SDS011;6248;49.812;6.620;2024-01-15T01:07:36;31.63;;;12.40;;
12367;SDS011;6248;49.812;6.620;2024-01-15T01:10:03;29.93;;;11.97;;
12367;SDS011;6248;49.812;6.620;2024-01-15T01:12:30;32.83;;;12.97;;
12367;SDS011;6248;49.812;6.620;2024-01-15T01:14:57;34.37;;;13.33;;
12367;SDS011;6248;49.812;6.620;2024-01-15T01:17:24;32.97;;;13.03;;
12367;SDS011;6248;49.812;6.620;2024-01-15T01:19:53;37.93;;;12.77;;
12367;SDS011;6248;49.812;6.620;2024-01-15T01:22:20;34.30;;;12.63;;
12367;SDS011;6248;49.812;6.620;2024-01-15T01:24:47;34.17;;;13.27;;
12367;SDS011;6248;49.812;6.620;2024-01-15T01:27:14;37.20;;;13.60;;
12367;SDS011;6248;49.812;6.620;2024-01-15T01:29:41;35.03;;;13.67;;
12367;SDS011;6248;49.812;6.620;2024-01-15T01:32:08;34.67;;;12.50;;
12367;SDS011;6248;49.812;6.620;2024-01-15T01:34:39;34.60;;;13.03;;
12367;SDS011;6248;49.812;6.620;2024-01-15T01:37:08;35.33;;;13.40;;
12367;SDS011;6248;49.812;6.620;2024-01-15T01:39:37;42.23;;;15.33;;
12367;SDS011;6248;49.812;6.620;2024-01-15T01:42:05;38.07;;;14.67;;
12367;SDS011;6248;49.812;6.620;2024-01-15T01:44:32;32.37;;;14.00;;
12367;SDS011;6248;49.812;6.620;2024-01-15T01:46:59;38.17;;;13.87;;
12367;SDS011;6248;49.812;6.620;2024-01-15T01:49:27;39.83;;;13.60;;
12367;SDS011;6248;49.812;6.620;2024-01-15T01:51:55;41.97;;;14.03;;
12367;SDS011;6248;49.812;6.620;2024-01-15T01:54:25;34.47;;;13.57;;
12367;SDS011;6248;49.812;6.620;2024-01-15T01:56:53;36.47;;;14.50;;
12367;SDS011;6248;49.812;6.620;2024-01-15T01:59:20;37.67;;;14.23;;
12367;SDS011;6248;49.812;6.620;2024-01-15T02:01:48;37.43;;;13.70;;
12367;SDS011;6248;49.812;6.620;2024-01-15T02:04:16;32.23;;;13.93;;
12367;SDS011;6248;49.812;6.620;2024-01-15T02:06:44;36.30;;;12.13;;
12367;SDS011;6248;49.812;6.620;2024-01-15T02:09:11;36.70;;;13.53;;
12367;SDS011;6248;49.812;6.620;2024-01-15T02:11:41;35.47;;;14.13;;
12367;SDS011;6248;49.812;6.620;2024-01-15T02:14:08;34.20;;;12.03;;
12367;SDS011;6248;49.812;6.620;2024-01-15T02:16:36;35.03;;;13.87;;
12367;SDS011;6248;49.812;6.620;2024-01-15T02:19:03;41.80;;;15.27;;
12367;SDS011;6248;49.812;6.620;2024-01-15T02:21:30;33.47;;;13.83;;
12367;SDS011;6248;49.812;6.620;2024-01-15T02:23:59;29.43;;;13.10;;
12367;SDS011;6248;49.812;6.620;2024-01-15T02:26:26;32.00;;;14.07;;
12367;SDS011;6248;49.812;6.620;2024-01-15T02:28:53;35.90;;;14.17;;
12367;SDS011;6248;49.812;6.620;2024-01-15T02:31:21;34.97;;;14.37;;
12367;SDS011;6248;49.812;6.620;2024-01-15T02:33:48;38.17;;;14.97;;
12367;SDS011;6248;49.812;6.620;2024-01-15T02:36:15;36.20;;;14.03;;
12367;SDS011;6248;49.812;6.620;2024-01-15T02:38:42;37.20;;;14.83;;
12367;SDS011;6248;49.812;6.620;2024-01-15T02:41:11;35.63;;;14.67;;
12367;SDS011;6248;49.812;6.620;2024-01-15T02:43:39;40.23;;;14.57;;
12367;SDS011;6248;49.812;6.620;2024-01-15T02:46:06;32.07;;;14.53;;
12367;SDS011;6248;49.812;6.620;2024-01-15T02:48:33;38.47;;;15.17;;
12367;SDS011;6248;49.812;6.620;2024-01-15T02:51:00;46.50;;;15.17;;
12367;SDS011;6248;49.812;6.620;2024-01-15T02:53:28;39.20;;;15.33;;
12367;SDS011;6248;49.812;6.620;2024-01-15T02:55:55;35.90;;;14.23;;
12367;SDS011;6248;49.812;6.620;2024-01-15T02:58:23;40.20;;;15.83;;
12367;SDS011;6248;49.812;6.620;2024-01-15T03:00:50;41.77;;;15.33;;
12367;SDS011;6248;49.812;6.620;2024-01-15T03:03:18;40.40;;;14.70;;
12367;SDS011;6248;49.812;6.620;2024-01-15T03:05:45;38.87;;;16.17;;
12367;SDS011;6248;49.812;6.620;2024-01-15T03:08:12;35.83;;;15.27;;
12367;SDS011;6248;49.812;6.620;2024-01-15T03:10:39;42.10;;;15.70;;
12367;SDS011;6248;49.812;6.620;2024-01-15T03:13:06;39.67;;;15.20;;
12367;SDS011;6248;49.812;6.620;2024-01-15T03:15:35;44.53;;;15.97;;
12367;SDS011;6248;49.812;6.620;2024-01-15T03:18:02;45.57;;;15.83;;
12367;SDS011;6248;49.812;6.620;2024-01-15T03:20:30;42.63;;;15.90;;
12367;SDS011;6248;49.812;6.620;2024-01-15T03:22:57;45.67;;;16.00;;
12367;SDS011;6248;49.812;6.620;2024-01-15T03:25:24;42.43;;;16.00;;
12367;SDS011;6248;49.812;6.620;2024-01-15T03:27:51;35.53;;;13.40;;
12367;SDS011;6248;49.812;6.620;2024-01-15T03:30:18;42.43;;;16.63;;
12367;SDS011;6248;49.812;6.620;2024-01-15T03:32:47;41.53;;;15.63;;
12367;SDS011;6248;49.812;6.620;2024-01-15T03:35:15;40.23;;;16.00;;
12367;SDS011;6248;49.812;6.620;2024-01-15T03:37:42;40.47;;;16.80;;
12367;SDS011;6248;49.812;6.620;2024-01-15T03:40:09;37.60;;;14.93;;
12367;SDS011;6248;49.812;6.620;2024-01-15T03:42:37;38.13;;;14.70;;
12367;SDS011;6248;49.812;6.620;2024-01-15T03:45:04;40.00;;;15.90;;
12367;SDS011;6248;49.812;6.620;2024-01-15T03:47:32;43.03;;;15.87;;
12367;SDS011;6248;49.812;6.620;2024-01-15T03:50:00;41.87;;;16.10;;
12367;SDS011;6248;49.812;6.620;2024-01-15T03:52:27;37.97;;;14.33;;
12367;SDS011;6248;49.812;6.620;2024-01-15T03:54:54;44.03;;;16.53;;
12367;SDS011;6248;49.812;6.620;2024-01-15T03:57:21;43.47;;;15.50;;
12367;SDS011;6248;49.812;6.620;2024-01-15T03:59:48;41.67;;;15.87;;
12367;SDS011;6248;49.812;6.620;2024-01-15T04:02:16;42.20;;;16.33;;
12367;SDS011;6248;49.812;6.620;2024-01-15T04:04:43;41.97;;;15.67;;
12367;SDS011;6248;49.812;6.620;2024-01-15T04:07:11;41.03;;;15.67;;
12367;SDS011;6248;49.812;6.620;2024-01-15T04:09:38;44.73;;;16.20;;
12367;SDS011;6248;49.812;6.620;2024-01-15T04:12:06;43.50;;;16.27;;
12367;SDS011;6248;49.812;6.620;2024-01-15T04:14:33;41.20;;;16.27;;
12367;SDS011;6248;49.812;6.620;2024-01-15T04:17:00;37.80;;;15.60;;
12367;SDS011;6248;49.812;6.620;2024-01-15T04:19:27;40.20;;;15.93;;
12367;SDS011;6248;49.812;6.620;2024-01-15T04:21:54;49.03;;;16.90;;
12367;SDS011;6248;49.812;6.620;2024-01-15T04:24:23;45.30;;;16.43;;
12367;SDS011;6248;49.812;6.620;2024-01-15T04:26:50;45.50;;;16.53;;
12367;SDS011;6248;49.812;6.620;2024-01-15T04:29:18;40.70;;;16.30;;
12367;SDS011;6248;49.812;6.620;2024-01-15T04:31:45;38.27;;;15.67;;
12367;SDS011;6248;49.812;6.620;2024-01-15T04:34:12;38.03;;;15.23;;
12367;SDS011;6248;49.812;6.620;2024-01-15T04:36:39;49.63;;;18.00;;
12367;SDS011;6248;49.812;6.620;2024-01-15T04:39:06;35.97;;;14.73;;
12367;SDS011;6248;49.812;6.620;2024-01-15T04:41:35;34.53;;;15.90;;
12367;SDS011;6248;49.812;6.620;2024-01-15T04:44:02;38.23;;;15.70;;
12367;SDS011;6248;49.812;6.620;2024-01-15T04:46:29;39.77;;;15.47;;
12367;SDS011;6248;49.812;6.620;2024-01-15T04:48:56;39.47;;;15.73;;
12367;SDS011;6248;49.812;6.620;2024-01-15T04:51:23;43.87;;;16.43;;
12367;SDS011;6248;49.812;6.620;2024-01-15T04:53:50;39.20;;;16.43;;
12367;SDS011;6248;49.812;6.620;2024-01-15T04:56:17;43.33;;;15.70;;
12367;SDS011;6248;49.812;6.620;2024-01-15T04:58:46;39.63;;;16.93;;
12367;SDS011;6248;49.812;6.620;2024-01-15T05:01:15;46.07;;;16.93;;
12367;SDS011;6248;49.812;6.620;2024-01-15T05:03:42;36.70;;;15.57;;
12367;SDS011;6248;49.812;6.620;2024-01-15T05:06:09;40.97;;;15.83;;
12367;SDS011;6248;49.812;6.620;2024-01-15T05:08:37;37.87;;;15.70;;
12367;SDS011;6248;49.812;6.620;2024-01-15T05:11:04;35.90;;;15.83;;
12367;SDS011;6248;49.812;6.620;2024-01-15T05:13:31;37.53;;;14.53;;
12367;SDS011;6248;49.812;6.620;2024-01-15T05:15:59;33.50;;;16.03;;
12367;SDS011;6248;49.812;6.620;2024-01-15T05:18:27;32.93;;;15.33;;
12367;SDS011;6248;49.812;6.620;2024-01-15T05:20:54;35.17;;;15.40;;
12367;SDS011;6248;49.812;6.620;2024-01-15T05:23:21;43.00;;;17.53;;
12367;SDS011;6248;49.812;6.620;2024-01-15T05:25:48;36.30;;;14.93;;
12367;SDS011;6248;49.812;6.620;2024-01-15T05:28:15;34.70;;;14.77;;
12367;SDS011;6248;49.812;6.620;2024-01-15T05:30:43;37.67;;;15.63;;
12367;SDS011;6248;49.812;6.620;2024-01-15T05:33:11;33.03;;;14.70;;
12367;SDS011;6248;49.812;6.620;2024-01-15T05:35:38;37.07;;;16.50;;
12367;SDS011;6248;49.812;6.620;2024-01-15T05:38:05;36.73;;;15.63;;
12367;SDS011;6248;49.812;6.620;2024-01-15T05:40:33;32.20;;;15.67;;
12367;SDS011;6248;49.812;6.620;2024-01-15T05:43:00;35.97;;;15.27;;
12367;SDS011;6248;49.812;6.620;2024-01-15T05:45:27;33.70;;;14.50;;
12367;SDS011;6248;49.812;6.620;2024-01-15T05:47:54;33.30;;;15.77;;
12367;SDS011;6248;49.812;6.620;2024-01-15T05:50:22;33.07;;;14.93;;
12367;SDS011;6248;49.812;6.620;2024-01-15T05:52:49;31.80;;;15.70;;
12367;SDS011;6248;49.812;6.620;2024-01-15T05:55:17;33.83;;;15.43;;
12367;SDS011;6248;49.812;6.620;2024-01-15T05:57:44;30.77;;;14.13;;
12367;SDS011;6248;49.812;6.620;2024-01-15T06:00:12;31.30;;;14.43;;
12367;SDS011;6248;49.812;6.620;2024-01-15T06:02:39;33.07;;;15.03;;
12367;SDS011;6248;49.812;6.620;2024-01-15T06:05:06;28.27;;;13.43;;
12367;SDS011;6248;49.812;6.620;2024-01-15T06:07:35;32.20;;;14.13;;
12367;SDS011;6248;49.812;6.620;2024-01-15T06:10:02;31.43;;;14.63;;
12367;SDS011;6248;49.812;6.620;2024-01-15T06:12:29;29.70;;;15.23;;
12367;SDS011;6248;49.812;6.620;2024-01-15T06:14:57;30.23;;;14.37;;
12367;SDS011;6248;49.812;6.620;2024-01-15T06:17:24;31.57;;;14.37;;
12367;SDS011;6248;49.812;6.620;2024-01-15T06:19:51;30.03;;;14.13;;
12367;SDS011;6248;49.812;6.620;2024-01-15T06:22:18;35.07;;;14.57;;
12367;SDS011;6248;49.812;6.620;2024-01-15T06:24:47;32.10;;;14.87;;
12367;SDS011;6248;49.812;6.620;2024-01-15T06:27:14;36.73;;;15.50;;
12367;SDS011;6248;49.812;6.620;2024-01-15T06:29:44;32.23;;;14.63;;
12367;SDS011;6248;49.812;6.620;2024-01-15T06:32:11;31.93;;;14.30;;
12367;SDS011;6248;49.812;6.620;2024-01-15T06:34:38;28.87;;;14.77;;
12367;SDS011;6248;49.812;6.620;2024-01-15T06:37:05;27.93;;;14.37;;
12367;SDS011;6248;49.812;6.620;2024-01-15T06:39:33;29.60;;;14.40;;
12367;SDS011;6248;49.812;6.620;2024-01-15T06:42:02;31.67;;;14.40;;
12367;SDS011;6248;49.812;6.620;2024-01-15T06:44:29;32.87;;;14.10;;
12367;SDS011;6248;49.812;6.620;2024-01-15T06:46:56;30.30;;;13.60;;
12367;SDS011;6248;49.812;6.620;2024-01-15T06:49:27;34.27;;;15.50;;
12367;SDS011;6248;49.812;6.620;2024-01-15T06:51:54;29.70;;;13.90;;
12367;SDS011;6248;49.812;6.620;2024-01-15T06:54:21;35.07;;;15.37;;
12367;SDS011;6248;49.812;6.620;2024-01-15T06:56:49;34.20;;;14.47;;
12367;SDS011;6248;49.812;6.620;2024-01-15T06:59:17;36.10;;;15.00;;
12367;SDS011;6248;49.812;6.620;2024-01-15T07:01:44;35.47;;;15.30;;
12367;SDS011;6248;49.812;6.620;2024-01-15T07:04:11;34.03;;;14.87;;
12367;SDS011;6248;49.812;6.620;2024-01-15T07:06:38;32.40;;;14.67;;
12367;SDS011;6248;49.812;6.620;2024-01-15T07:09:06;32.17;;;14.50;;
12367;SDS011;6248;49.812;6.620;2024-01-15T07:11:34;34.50;;;15.70;;
12367;SDS011;6248;49.812;6.620;2024-01-15T07:14:01;36.13;;;15.43;;
12367;SDS011;6248;49.812;6.620;2024-01-15T07:16:30;33.40;;;15.47;;
12367;SDS011;6248;49.812;6.620;2024-01-15T07:18:57;26.90;;;13.87;;
12367;SDS011;6248;49.812;6.620;2024-01-15T07:21:24;33.83;;;15.50;;
12367;SDS011;6248;49.812;6.620;2024-01-15T07:23:51;32.70;;;14.80;;
12367;SDS011;6248;49.812;6.620;2024-01-15T07:26:18;29.60;;;14.13;;
12367;SDS011;6248;49.812;6.620;2024-01-15T07:28:45;34.90;;;15.63;;
12367;SDS011;6248;49.812;6.620;2024-01-15T07:31:12;26.47;;;14.00;;
12367;SDS011;6248;49.812;6.620;2024-01-15T07:33:41;31.87;;;14.67;;
12367;SDS011;6248;49.812;6.620;2024-01-15T07:36:08;31.53;;;15.00;;
12367;SDS011;6248;49.812;6.620;2024-01-15T07:38:35;31.20;;;14.53;;
12367;SDS011;6248;49.812;6.620;2024-01-15T07:41:02;27.57;;;14.03;;
12367;SDS011;6248;49.812;6.620;2024-01-15T07:43:29;29.87;;;14.67;;
12367;SDS011;6248;49.812;6.620;2024-01-15T07:45:57;31.33;;;14.43;;
12367;SDS011;6248;49.812;6.620;2024-01-15T07:48:24;29.43;;;14.83;;
12367;SDS011;6248;49.812;6.620;2024-01-15T07:50:52;29.07;;;14.33;;
12367;SDS011;6248;49.812;6.620;2024-01-15T07:53:19;32.83;;;14.90;;
12367;SDS011;6248;49.812;6.620;2024-01-15T07:55:46;33.37;;;15.43;;
12367;SDS011;6248;49.812;6.620;2024-01-15T07:58:13;38.70;;;16.43;;
12367;SDS011;6248;49.812;6.620;2024-01-15T08:00:40;34.20;;;15.87;;
12367;SDS011;6248;49.812;6.620;2024-01-15T08:03:08;32.43;;;14.40;;
12367;SDS011;6248;49.812;6.620;2024-01-15T08:05:35;35.53;;;15.73;;
12367;SDS011;6248;49.812;6.620;2024-01-15T08:08:04;31.93;;;15.20;;
12367;SDS011;6248;49.812;6.620;2024-01-15T08:10:31;34.47;;;15.60;;
12367;SDS011;6248;49.812;6.620;2024-01-15T08:12:58;35.87;;;16.10;;
12367;SDS011;6248;49.812;6.620;2024-01-15T08:15:25;36.23;;;16.63;;
12367;SDS011;6248;49.812;6.620;2024-01-15T08:17:52;30.80;;;15.97;;
12367;SDS011;6248;49.812;6.620;2024-01-15T08:20:19;32.70;;;14.63;;
12367;SDS011;6248;49.812;6.620;2024-01-15T08:22:47;34.53;;;15.63;;
12367;SDS011;6248;49.812;6.620;2024-01-15T08:25:15;31.70;;;15.57;;
12367;SDS011;6248;49.812;6.620;2024-01-15T08:27:42;30.13;;;14.60;;
12367;SDS011;6248;49.812;6.620;2024-01-15T08:30:10;29.80;;;14.57;;
12367;SDS011;6248;49.812;6.620;2024-01-15T08:32:37;31.77;;;14.70;;
12367;SDS011;6248;49.812;6.620;2024-01-15T08:35:07;28.70;;;14.40;;
12367;SDS011;6248;49.812;6.620;2024-01-15T08:37:34;29.50;;;13.97;;
12367;SDS011;6248;49.812;6.620;2024-01-15T08:40:01;34.10;;;15.63;;
12367;SDS011;6248;49.812;6.620;2024-01-15T08:42:30;28.93;;;14.60;;
12367;SDS011;6248;49.812;6.620;2024-01-15T08:44:57;29.13;;;14.70;;
12367;SDS011;6248;49.812;6.620;2024-01-15T08:47:24;28.10;;;13.97;;
12367;SDS011;6248;49.812;6.620;2024-01-15T08:49:52;31.17;;;14.77;;
12367;SDS011;6248;49.812;6.620;2024-01-15T08:52:19;30.17;;;14.57;;
12367;SDS011;6248;49.812;6.620;2024-01-15T08:54:47;28.13;;;13.97;;
12367;SDS011;6248;49.812;6.620;2024-01-15T08:57:14;23.47;;;13.13;;
12367;SDS011;6248;49.812;6.620;2024-01-15T08:59:42;27.90;;;14.43;;
12367;SDS011;6248;49.812;6.620;2024-01-15T09:02:10;29.47;;;14.57;;
12367;SDS011;6248;49.812;6.620;2024-01-15T09:04:37;25.70;;;12.83;;
12367;SDS011;6248;49.812;6.620;2024-01-15T09:07:04;28.47;;;13.10;;
12367;SDS011;6248;49.812;6.620;2024-01-15T09:09:31;27.17;;;13.70;;
12367;SDS011;6248;49.812;6.620;2024-01-15T09:11:59;28.17;;;14.17;;
12367;SDS011;6248;49.812;6.620;2024-01-15T09:14:26;26.73;;;13.23;;
12367;SDS011;6248;49.812;6.620;2024-01-15T09:16:55;27.33;;;14.03;;
12367;SDS011;6248;49.812;6.620;2024-01-15T09:19:23;35.33;;;16.83;;
12367;SDS011;6248;49.812;6.620;2024-01-15T09:21:50;29.83;;;14.57;;
12367;SDS011;6248;49.812;6.620;2024-01-15T09:24:17;25.57;;;13.00;;
12367;SDS011;6248;49.812;6.620;2024-01-15T09:26:44;22.80;;;13.23;;
12367;SDS011;6248;49.812;6.620;2024-01-15T09:29:11;24.37;;;12.77;;
12367;SDS011;6248;49.812;6.620;2024-01-15T09:31:40;24.00;;;12.73;;
12367;SDS011;6248;49.812;6.620;2024-01-15T09:34:09;25.17;;;12.67;;
12367;SDS011;6248;49.812;6.620;2024-01-15T09:36:38;20.23;;;10.63;;
12367;SDS011;6248;49.812;6.620;2024-01-15T09:39:06;22.80;;;11.63;;
12367;SDS011;6248;49.812;6.620;2024-01-15T09:41:34;22.47;;;11.27;;
12367;SDS011;6248;49.812;6.620;2024-01-15T09:44:01;18.90;;;10.80;;
12367;SDS011;6248;49.812;6.620;2024-01-15T09:46:29;20.83;;;11.43;;
12367;SDS011;6248;49.812;6.620;2024-01-15T09:48:56;17.77;;;9.90;;
12367;SDS011;6248;49.812;6.620;2024-01-15T09:51:25;19.40;;;11.00;;
12367;SDS011;6248;49.812;6.620;2024-01-15T09:53:52;20.00;;;11.63;;
12367;SDS011;6248;49.812;6.620;2024-01-15T09:56:21;22.40;;;12.30;;
12367;SDS011;6248;49.812;6.620;2024-01-15T09:58:48;17.67;;;10.80;;
12367;SDS011;6248;49.812;6.620;2024-01-15T10:01:17;18.40;;;10.20;;
12367;SDS011;6248;49.812;6.620;2024-01-15T10:03:44;20.27;;;11.70;;
12367;SDS011;6248;49.812;6.620;2024-01-15T10:06:11;19.43;;;10.57;;
12367;SDS011;6248;49.812;6.620;2024-01-15T10:08:41;18.73;;;10.50;;
12367;SDS011;6248;49.812;6.620;2024-01-15T10:11:09;19.70;;;10.60;;
12367;SDS011;6248;49.812;6.620;2024-01-15T10:13:36;18.40;;;10.63;;
12367;SDS011;6248;49.812;6.620;2024-01-15T10:16:03;17.53;;;9.67;;
12367;SDS011;6248;49.812;6.620;2024-01-15T10:18:31;15.97;;;10.40;;
12367;SDS011;6248;49.812;6.620;2024-01-15T10:20:58;18.30;;;10.97;;
12367;SDS011;6248;49.812;6.620;2024-01-15T10:23:26;15.83;;;9.70;;
12367;SDS011;6248;49.812;6.620;2024-01-15T10:25:55;18.50;;;10.73;;
12367;SDS011;6248;49.812;6.620;2024-01-15T10:28:25;15.90;;;9.93;;
12367;SDS011;6248;49.812;6.620;2024-01-15T10:30:55;15.83;;;9.47;;
12367;SDS011;6248;49.812;6.620;2024-01-15T10:33:22;17.17;;;10.10;;
12367;SDS011;6248;49.812;6.620;2024-01-15T10:35:51;16.20;;;10.20;;
12367;SDS011;6248;49.812;6.620;2024-01-15T10:38:20;16.87;;;9.93;;
12367;SDS011;6248;49.812;6.620;2024-01-15T10:40:47;15.13;;;9.97;;
12367;SDS011;6248;49.812;6.620;2024-01-15T10:43:16;14.43;;;9.50;;
12367;SDS011;6248;49.812;6.620;2024-01-15T10:45:43;15.63;;;9.77;;
12367;SDS011;6248;49.812;6.620;2024-01-15T10:48:11;14.67;;;9.90;;
12367;SDS011;6248;49.812;6.620;2024-01-15T10:50:38;16.57;;;9.40;;
12367;SDS011;6248;49.812;6.620;2024-01-15T10:53:05;14.57;;;9.47;;
12367;SDS011;6248;49.812;6.620;2024-01-15T10:55:33;14.83;;;9.50;;
12367;SDS011;6248;49.812;6.620;2024-01-15T10:58:00;16.97;;;9.93;;
12367;SDS011;6248;49.812;6.620;2024-01-15T11:00:30;16.07;;;9.50;;
12367;SDS011;6248;49.812;6.620;2024-01-15T11:02:57;15.60;;;9.50;;
12367;SDS011;6248;49.812;6.620;2024-01-15T11:05:24;15.03;;;9.90;;
12367;SDS011;6248;49.812;6.620;2024-01-15T11:07:54;13.70;;;9.07;;
12367;SDS011;6248;49.812;6.620;2024-01-15T11:10:37;13.43;;;8.80;;
12367;SDS011;6248;49.812;6.620;2024-01-15T11:13:05;15.67;;;9.73;;
12367;SDS011;6248;49.812;6.620;2024-01-15T11:15:33;13.97;;;9.17;;
12367;SDS011;6248;49.812;6.620;2024-01-15T11:18:20;12.60;;;8.93;;
12367;SDS011;6248;49.812;6.620;2024-01-15T11:23:42;13.10;;;9.40;;
12367;SDS011;6248;49.812;6.620;2024-01-15T11:28:53;12.27;;;8.67;;
12367;SDS011;6248;49.812;6.620;2024-01-15T11:31:25;13.70;;;8.70;;
12367;SDS011;6248;49.812;6.620;2024-01-15T11:33:52;12.97;;;9.13;;
12367;SDS011;6248;49.812;6.620;2024-01-15T11:36:20;12.40;;;8.70;;
12367;SDS011;6248;49.812;6.620;2024-01-15T11:38:47;12.63;;;8.63;;
12367;SDS011;6248;49.812;6.620;2024-01-15T11:41:14;13.17;;;9.10;;
12367;SDS011;6248;49.812;6.620;2024-01-15T11:43:41;12.97;;;9.33;;
12367;SDS011;6248;49.812;6.620;2024-01-15T11:46:10;12.47;;;8.97;;
12367;SDS011;6248;49.812;6.620;2024-01-15T11:48:42;13.53;;;8.83;;
12367;SDS011;6248;49.812;6.620;2024-01-15T11:51:11;12.33;;;9.17;;
12367;SDS011;6248;49.812;6.620;2024-01-15T11:53:40;11.83;;;8.43;;
12367;SDS011;6248;49.812;6.620;2024-01-15T11:56:12;11.17;;;8.20;;
12367;SDS011;6248;49.812;6.620;2024-01-15T11:58:41;11.57;;;8.37;;
12367;SDS011;6248;49.812;6.620;2024-01-15T12:01:08;12.13;;;8.00;;
12367;SDS011;6248;49.812;6.620;2024-01-15T12:03:36;11.57;;;8.50;;
12367;SDS011;6248;49.812;6.620;2024-01-15T12:06:06;11.43;;;8.37;;
12367;SDS011;6248;49.812;6.620;2024-01-15T12:08:33;12.80;;;8.20;;
12367;SDS011;6248;49.812;6.620;2024-01-15T12:11:01;10.13;;;7.63;;
12367;SDS011;6248;49.812;6.620;2024-01-15T12:13:32;10.93;;;7.87;;
12367;SDS011;6248;49.812;6.620;2024-01-15T12:16:00;10.90;;;7.83;;
12367;SDS011;6248;49.812;6.620;2024-01-15T12:18:29;11.63;;;8.40;;
12367;SDS011;6248;49.812;6.620;2024-01-15T12:20:56;10.13;;;8.20;;
12367;SDS011;6248;49.812;6.620;2024-01-15T12:23:25;10.13;;;7.47;;
12367;SDS011;6248;49.812;6.620;2024-01-15T12:25:53;9.83;;;7.60;;
12367;SDS011;6248;49.812;6.620;2024-01-15T12:28:20;13.33;;;7.97;;
12367;SDS011;6248;49.812;6.620;2024-01-15T12:30:47;9.37;;;6.80;;
12367;SDS011;6248;49.812;6.620;2024-01-15T12:33:17;10.67;;;7.03;;
12367;SDS011;6248;49.812;6.620;2024-01-15T12:35:44;11.30;;;6.97;;
12367;SDS011;6248;49.812;6.620;2024-01-15T12:38:11;9.70;;;7.23;;
12367;SDS011;6248;49.812;6.620;2024-01-15T12:40:40;7.90;;;6.20;;
12367;SDS011;6248;49.812;6.620;2024-01-15T12:43:12;10.17;;;6.70;;
12367;SDS011;6248;49.812;6.620;2024-01-15T12:45:40;11.00;;;6.60;;
12367;SDS011;6248;49.812;6.620;2024-01-15T12:48:08;8.43;;;6.27;;
12367;SDS011;6248;49.812;6.620;2024-01-15T12:50:35;7.77;;;5.67;;
12367;SDS011;6248;49.812;6.620;2024-01-15T12:53:03;7.17;;;4.93;;
12367;SDS011;6248;49.812;6.620;2024-01-15T12:55:30;8.00;;;4.40;;
12367;SDS011;6248;49.812;6.620;2024-01-15T12:57:58;7.87;;;4.23;;
12367;SDS011;6248;49.812;6.620;2024-01-15T13:00:25;5.90;;;4.00;;
12367;SDS011;6248;49.812;6.620;2024-01-15T13:02:52;6.17;;;3.17;;
12367;SDS011;6248;49.812;6.620;2024-01-15T13:05:21;4.00;;;3.10;;
12367;SDS011;6248;49.812;6.620;2024-01-15T13:07:49;3.47;;;2.30;;
12367;SDS011;6248;49.812;6.620;2024-01-15T13:10:16;7.93;;;2.50;;
12367;SDS011;6248;49.812;6.620;2024-01-15T13:12:43;4.77;;;2.33;;
12367;SDS011;6248;49.812;6.620;2024-01-15T13:15:11;3.73;;;2.40;;
12367;SDS011;6248;49.812;6.620;2024-01-15T13:17:38;4.33;;;2.40;;
12367;SDS011;6248;49.812;6.620;2024-01-15T13:20:06;30.77;;;13.37;;
12367;SDS011;6248;49.812;6.620;2024-01-15T13:22:36;6.47;;;4.10;;
12367;SDS011;6248;49.812;6.620;2024-01-15T13:25:04;3.43;;;2.90;;
12367;SDS011;6248;49.812;6.620;2024-01-15T13:27:32;2.53;;;1.77;;
12367;SDS011;6248;49.812;6.620;2024-01-15T13:30:00;4.77;;;1.80;;
12367;SDS011;6248;49.812;6.620;2024-01-15T13:32:29;4.27;;;1.57;;
12367;SDS011;6248;49.812;6.620;2024-01-15T13:34:56;3.00;;;1.60;;
12367;SDS011;6248;49.812;6.620;2024-01-15T13:37:24;3.00;;;1.97;;
12367;SDS011;6248;49.812;6.620;2024-01-15T13:39:51;5.23;;;2.00;;
12367;SDS011;6248;49.812;6.620;2024-01-15T13:42:18;2.60;;;1.80;;
12367;SDS011;6248;49.812;6.620;2024-01-15T13:44:47;3.63;;;2.00;;
12367;SDS011;6248;49.812;6.620;2024-01-15T13:47:14;4.00;;;2.00;;
12367;SDS011;6248;49.812;6.620;2024-01-15T13:49:42;2.17;;;1.97;;
12367;SDS011;6248;49.812;6.620;2024-01-15T13:52:09;3.33;;;1.70;;
12367;SDS011;6248;49.812;6.620;2024-01-15T13:54:37;3.97;;;1.70;;
12367;SDS011;6248;49.812;6.620;2024-01-15T13:57:04;2.93;;;1.37;;
12367;SDS011;6248;49.812;6.620;2024-01-15T13:59:32;3.33;;;2.17;;
12367;SDS011;6248;49.812;6.620;2024-01-15T14:01:59;2.90;;;1.67;;
12367;SDS011;6248;49.812;6.620;2024-01-15T14:04:26;3.40;;;2.47;;
12367;SDS011;6248;49.812;6.620;2024-01-15T14:06:54;4.13;;;2.07;;
12367;SDS011;6248;49.812;6.620;2024-01-15T14:09:21;3.63;;;1.87;;
12367;SDS011;6248;49.812;6.620;2024-01-15T14:11:50;4.40;;;1.93;;
12367;SDS011;6248;49.812;6.620;2024-01-15T14:14:17;4.07;;;2.63;;
12367;SDS011;6248;49.812;6.620;2024-01-15T14:16:44;3.87;;;1.80;;
12367;SDS011;6248;49.812;6.620;2024-01-15T14:19:11;3.83;;;1.73;;
12367;SDS011;6248;49.812;6.620;2024-01-15T14:21:40;2.50;;;1.70;;
12367;SDS011;6248;49.812;6.620;2024-01-15T14:24:08;2.57;;;1.67;;
12367;SDS011;6248;49.812;6.620;2024-01-15T14:26:35;2.67;;;1.50;;
12367;SDS011;6248;49.812;6.620;2024-01-15T14:29:02;3.60;;;1.53;;
12367;SDS011;6248;49.812;6.620;2024-01-15T14:31:30;2.07;;;1.60;;
12367;SDS011;6248;49.812;6.620;2024-01-15T14:33:59;3.20;;;1.73;;
12367;SDS011;6248;49.812;6.620;2024-01-15T14:36:28;3.03;;;1.50;;
12367;SDS011;6248;49.812;6.620;2024-01-15T14:38:55;2.60;;;1.13;;
12367;SDS011;6248;49.812;6.620;2024-01-15T14:41:23;4.90;;;1.83;;
12367;SDS011;6248;49.812;6.620;2024-01-15T14:43:50;1.93;;;1.50;;
12367;SDS011;6248;49.812;6.620;2024-01-15T14:46:17;2.80;;;1.90;;
12367;SDS011;6248;49.812;6.620;2024-01-15T14:48:46;4.33;;;1.70;;